Main page
METAR-TAF:

METAR-TAF

Airports :

Ghedi Air Base

Brescia Ghedi, Italy

latitude: 45-25N, longitude: 010-17E, elevation: 102 m

METAR: missing

Time: 04:27 (02:27 UTC)

Forecast

The report was made 3 hours and 27 minutes ago, at 23:00 UTC
Forecast valid from 22 at 00 UTC to 22 at 09 UTC
Wind 5 kt from variable directions
Visibility: 8000 m
Few clouds at a height of 3000 ft
Probability 30% :
Temporary
from 22 at 00 UTC to 22 at 06 UTC
Visibility: 4000 m
Scattered clouds at a height of 1500 ft
mist

TAF: LIPL 212300Z 2200/2209 VRB05KT 8000 FEW030 PROB30 TEMPO 2200/2206 4000 BR SCT015

Weather observations and forecasts of more than 4000 airports (METAR and TAF reports).

The available stations are represented by yellow and red dots on the map.

Hover mouse over dot to see the name of the station.

Then click to see weather observations and forecasts.

To change the map : click on the green buttons with a black cross to zoom in, on the green button with a dash to zoom out, or on the green arrows for adjacent maps.


METAR-TAF: